createdAt,value
2024-04-22T00:00:13.317Z,7.2
2024-04-22T00:00:44.312Z,7.2
2024-04-22T00:01:15.323Z,7.2
2024-04-22T00:01:46.302Z,7.2
2024-04-22T00:02:17.341Z,8.9
2024-04-22T00:02:48.329Z,8.9
2024-04-22T00:03:19.305Z,8.7
2024-04-22T00:03:50.335Z,8.7
2024-04-22T00:04:21.380Z,8.7
2024-04-22T00:04:52.313Z,8.7
2024-04-22T00:05:23.336Z,6.8
2024-04-22T00:05:54.308Z,6.8
2024-04-22T00:06:25.300Z,8.5
2024-04-22T00:06:56.325Z,8.5
2024-04-22T00:07:27.325Z,8.5
2024-04-22T00:07:58.328Z,8.5
2024-04-22T00:08:29.302Z,7.1
2024-04-22T00:09:00.310Z,7.1
2024-04-22T00:09:31.324Z,7.2
2024-04-22T00:10:02.324Z,7.2
2024-04-22T00:10:33.340Z,7.2
2024-04-22T00:11:05.402Z,7.2
2024-04-22T00:12:06.436Z,6.4
2024-04-22T00:12:37.368Z,6.4
2024-04-22T00:13:08.379Z,6.4
2024-04-22T00:13:39.466Z,6.4
2024-04-22T00:14:10.374Z,6.5
2024-04-22T00:14:41.359Z,6.5
2024-04-22T00:15:12.354Z,7.6
2024-04-22T00:15:43.368Z,7.6
2024-04-22T00:16:14.373Z,7.6
2024-04-22T00:16:45.431Z,7.6
2024-04-22T00:17:16.421Z,7.6
2024-04-22T00:17:47.406Z,7.6
2024-04-22T00:18:18.415Z,8.6
2024-04-22T00:18:49.365Z,8.6
2024-04-22T00:19:20.376Z,8.6
2024-04-22T00:20:22.365Z,8.6
2024-04-22T00:20:53.362Z,8.6
2024-04-22T00:22:26.378Z,6.3
2024-04-22T00:22:57.355Z,6.3
2024-04-22T00:23:28.366Z,6.3
2024-04-22T00:23:59.352Z,6.3
2024-04-22T00:24:30.358Z,6.9
2024-04-22T00:25:01.358Z,6.9
2024-04-22T00:25:32.396Z,6.9
2024-04-22T00:26:03.356Z,6.9
2024-04-22T00:26:34.508Z,6.9
2024-04-22T00:27:05.371Z,6.9
2024-04-22T00:27:36.361Z,6.6
2024-04-22T00:28:38.428Z,6.6
2024-04-22T00:29:09.375Z,6.6
2024-04-22T00:29:40.366Z,6.6
2024-04-22T00:30:42.364Z,7.8
2024-04-22T00:31:13.400Z,7.8
2024-04-22T00:31:44.386Z,7.8
2024-04-22T00:32:15.384Z,7.8
2024-04-22T00:32:46.472Z,7.8
2024-04-22T00:33:17.410Z,7.2
2024-04-22T00:33:48.369Z,7.2
2024-04-22T00:34:19.398Z,7.2
2024-04-22T00:34:50.374Z,7.2
2024-04-22T00:35:21.365Z,7.2
2024-04-22T00:35:52.367Z,7.2
2024-04-22T00:36:54.379Z,7.2
2024-04-22T00:37:25.394Z,7.2
2024-04-22T00:37:56.373Z,7.2
2024-04-22T00:38:27.366Z,7.2
2024-04-22T00:38:58.362Z,7.2
2024-04-22T00:39:29.368Z,8.6
2024-04-22T00:40:00.445Z,8.6
2024-04-22T00:40:31.378Z,8.6
2024-04-22T00:41:02.400Z,8.6
2024-04-22T00:41:33.382Z,8.6
2024-04-22T00:42:04.361Z,8.6
2024-04-22T00:42:35.374Z,5.7
2024-04-22T00:43:06.379Z,5.7
2024-04-22T00:43:37.424Z,5.7
2024-04-22T00:44:08.367Z,5.7
2024-04-22T00:44:39.391Z,5.7
2024-04-22T00:45:10.368Z,8.2
2024-04-22T00:45:41.388Z,8.2
2024-04-22T00:46:12.401Z,8.2
2024-04-22T00:46:43.442Z,8.2
2024-04-22T00:47:45.417Z,8.2
2024-04-22T00:48:16.376Z,6.3
2024-04-22T00:48:47.374Z,6.3
2024-04-22T00:49:49.372Z,6.3
2024-04-22T00:50:20.402Z,6.3
2024-04-22T00:50:51.375Z,6.3
2024-04-22T00:51:53.372Z,7.8
2024-04-22T00:52:24.396Z,7.8
2024-04-22T00:52:55.375Z,7.8
2024-04-22T00:53:26.389Z,7.8
2024-04-22T00:53:57.385Z,7.8
2024-04-22T00:54:28.372Z,6.6
2024-04-22T00:54:59.377Z,6.6
2024-04-22T00:55:30.423Z,6.6
2024-04-22T00:56:01.388Z,6.6
2024-04-22T00:56:32.399Z,6.6
2024-04-22T00:57:03.387Z,6.6
2024-04-22T00:57:34.624Z,5.9
2024-04-22T00:58:05.410Z,5.9
2024-04-22T00:58:36.412Z,5.9
2024-04-22T00:59:07.412Z,5.9
2024-04-22T00:59:38.393Z,5.9
2024-04-22T01:00:09.401Z,5.6
2024-04-22T01:00:40.396Z,5.6
2024-04-22T01:01:11.435Z,5.6
2024-04-22T01:01:42.422Z,5.6
2024-04-22T01:02:13.380Z,5.6
2024-04-22T01:02:44.427Z,5.6
2024-04-22T01:03:15.459Z,5.5
2024-04-22T01:03:46.412Z,5.5
2024-04-22T01:04:17.500Z,5.5
2024-04-22T01:04:48.531Z,5.5
2024-04-22T01:05:19.384Z,5.5
2024-04-22T01:05:50.383Z,5.5
2024-04-22T01:06:21.380Z,5.6
2024-04-22T01:06:52.402Z,5.6
2024-04-22T01:09:27.422Z,8.3
2024-04-22T01:10:29.439Z,8.3
2024-04-22T01:11:00.391Z,8.3
2024-04-22T01:11:31.434Z,8.3
2024-04-22T01:12:02.418Z,8.3
2024-04-22T01:12:33.390Z,5.8
2024-04-22T01:13:04.464Z,5.8
2024-04-22T01:13:35.476Z,5.8
2024-04-22T01:14:06.407Z,5.8
2024-04-22T01:14:37.416Z,5.8
2024-04-22T01:15:08.387Z,5.5
2024-04-22T01:15:39.402Z,5.5
2024-04-22T01:16:10.427Z,5.5
2024-04-22T01:16:41.429Z,5.5
2024-04-22T01:17:43.498Z,5.5
2024-04-22T01:18:14.400Z,6.1
2024-04-22T01:18:45.400Z,6.1
2024-04-22T01:19:47.462Z,6.1
2024-04-22T01:20:18.424Z,6.1
2024-04-22T01:20:49.414Z,6.1
2024-04-22T01:21:51.425Z,5.7
2024-04-22T01:22:22.434Z,5.8
2024-04-22T01:22:53.418Z,5.8
2024-04-22T01:23:55.461Z,5.8
2024-04-22T01:24:26.429Z,6.8
2024-04-22T01:24:57.421Z,6.8
2024-04-22T01:25:59.421Z,6.7
2024-04-22T01:26:30.435Z,6.7
2024-04-22T01:27:01.426Z,6.7
2024-04-22T01:28:03.440Z,5.0
2024-04-22T01:28:34.464Z,4.9
2024-04-22T01:29:05.433Z,4.9
2024-04-22T01:29:36.424Z,4.9
2024-04-22T01:30:07.453Z,7.7
2024-04-22T01:30:38.423Z,7.7
2024-04-22T01:31:09.456Z,7.4
2024-04-22T01:31:40.469Z,7.4
2024-04-22T01:32:11.455Z,7.4
2024-04-22T01:32:42.451Z,7.4
2024-04-22T01:33:13.519Z,5.3
2024-04-22T01:35:50.569Z,5.5
2024-04-22T01:37:21.464Z,5.4
2024-04-22T01:37:52.439Z,5.4
2024-04-22T01:38:23.427Z,5.4
2024-04-22T01:39:25.451Z,5.4
2024-04-22T01:39:56.432Z,5.4
2024-04-22T01:40:27.465Z,6.2
2024-04-22T01:41:29.439Z,6.2
2024-04-22T01:42:00.446Z,6.2
2024-04-22T01:42:31.438Z,6.2
2024-04-22T01:43:02.460Z,6.2
2024-04-22T01:44:04.445Z,5.1
2024-04-22T01:44:35.434Z,5.1
2024-04-22T01:45:06.438Z,5.1
2024-04-22T01:45:37.455Z,5.1
2024-04-22T01:46:08.498Z,5.3
2024-04-22T01:46:39.508Z,5.3
2024-04-22T01:47:10.450Z,5.3
2024-04-22T01:47:41.476Z,5.3
2024-04-22T01:48:12.448Z,5.3
2024-04-22T01:48:43.455Z,5.3
2024-04-22T01:49:14.469Z,5.6
2024-04-22T01:49:45.476Z,5.6
2024-04-22T01:50:16.462Z,5.6
2024-04-22T01:50:47.460Z,5.6
2024-04-22T01:51:49.442Z,5.6
2024-04-22T01:52:20.521Z,5.4
2024-04-22T01:52:51.445Z,5.4
2024-04-22T01:53:22.467Z,5.4
2024-04-22T01:53:53.463Z,5.4
2024-04-22T01:54:24.448Z,5.4
2024-04-22T01:54:55.440Z,5.4
2024-04-22T01:55:26.530Z,5.4
2024-04-22T01:55:57.451Z,5.4
2024-04-22T01:56:28.456Z,5.4
2024-04-22T01:56:59.449Z,5.4
2024-04-22T01:57:30.460Z,5.4
2024-04-22T01:58:01.456Z,5.4
2024-04-22T01:59:03.456Z,6.6
2024-04-22T01:59:34.454Z,6.6
2024-04-22T02:00:05.460Z,6.6
2024-04-22T02:00:36.542Z,6.6
2024-04-22T02:01:07.571Z,5.8
2024-04-22T02:01:38.493Z,5.8
2024-04-22T02:02:09.454Z,5.8
2024-04-22T02:02:40.521Z,5.8
2024-04-22T02:03:11.462Z,5.8
2024-04-22T02:03:42.507Z,5.8
2024-04-22T02:04:13.491Z,5.8
2024-04-22T02:04:44.477Z,5.8
2024-04-22T02:05:15.468Z,5.8
2024-04-22T02:05:46.489Z,5.8
2024-04-22T02:06:17.466Z,5.8
2024-04-22T02:06:48.457Z,5.8
2024-04-22T02:07:19.521Z,5.8
2024-04-22T02:07:50.490Z,5.8
2024-04-22T02:08:52.456Z,5.8
2024-04-22T02:09:23.473Z,5.8
2024-04-22T02:09:57.643Z,5.8
2024-04-22T02:10:56.636Z,5.8
2024-04-22T02:11:27.554Z,5.8
2024-04-22T02:11:58.463Z,5.8
2024-04-22T02:12:29.475Z,5.8
2024-04-22T02:13:00.466Z,5.8
2024-04-22T02:13:31.482Z,7.1
2024-04-22T02:14:02.487Z,7.1
2024-04-22T02:14:33.483Z,7.1
2024-04-22T02:15:04.482Z,7.1
2024-04-22T02:15:35.467Z,7.1
2024-04-22T02:16:06.614Z,5.9
2024-04-22T02:16:37.537Z,5.9
2024-04-22T02:17:08.535Z,5.9
2024-04-22T02:17:39.598Z,5.9
2024-04-22T02:18:10.543Z,5.9
2024-04-22T02:18:41.501Z,5.9
2024-04-22T02:19:12.525Z,6.1
2024-04-22T02:19:43.523Z,6.1
2024-04-22T02:20:14.533Z,6.1
2024-04-22T02:20:45.523Z,6.1
2024-04-22T02:21:16.513Z,6.1
2024-04-22T02:21:47.517Z,6.1
2024-04-22T02:22:18.519Z,7.8
2024-04-22T02:22:49.590Z,7.8
2024-04-22T02:23:20.526Z,7.8
2024-04-22T02:23:51.510Z,7.8
2024-04-22T02:24:22.510Z,7.8
2024-04-22T02:24:53.514Z,7.8
2024-04-22T02:25:24.536Z,6.0
2024-04-22T02:25:55.516Z,6.0
2024-04-22T02:26:26.513Z,6.0
2024-04-22T02:26:57.511Z,6.0
2024-04-22T02:27:28.516Z,6.0
2024-04-22T02:27:59.520Z,6.0
2024-04-22T02:28:30.559Z,6.2
2024-04-22T02:29:01.511Z,6.2
2024-04-22T02:29:32.513Z,6.2
2024-04-22T02:30:03.512Z,6.2
2024-04-22T02:30:34.523Z,6.2
2024-04-22T02:31:05.633Z,6.2
2024-04-22T02:32:07.539Z,6.5
2024-04-22T02:32:38.609Z,6.5
2024-04-22T02:33:09.702Z,6.5
2024-04-22T02:34:11.550Z,7.9
2024-04-22T02:34:42.544Z,7.9
2024-04-22T02:35:13.544Z,7.9
2024-04-22T02:36:15.521Z,7.9
2024-04-22T02:36:46.535Z,7.9
2024-04-22T02:37:17.547Z,6.9
2024-04-22T02:37:48.541Z,6.9
2024-04-22T02:38:19.533Z,6.9
2024-04-22T02:38:50.543Z,6.9
2024-04-22T02:39:21.525Z,6.9
2024-04-22T02:39:52.547Z,6.9
2024-04-22T02:40:23.566Z,7.8
2024-04-22T02:40:54.554Z,7.8
2024-04-22T02:41:25.523Z,7.8
2024-04-22T02:41:56.562Z,7.8
2024-04-22T02:42:27.534Z,7.8
2024-04-22T02:42:58.529Z,7.8
2024-04-22T02:44:00.533Z,6.7
2024-04-22T02:44:31.530Z,6.7
2024-04-22T02:45:02.539Z,6.7
2024-04-22T02:45:33.523Z,6.7
2024-04-22T02:46:04.537Z,6.7
2024-04-22T02:46:35.649Z,6.5
2024-04-22T02:47:06.602Z,6.5
2024-04-22T02:47:37.678Z,6.5
2024-04-22T02:48:08.646Z,6.5
2024-04-22T02:48:39.523Z,6.5
2024-04-22T02:49:10.559Z,7.1
2024-04-22T02:49:41.608Z,7.1
2024-04-22T02:50:12.533Z,7.1
2024-04-22T02:50:43.526Z,7.1
2024-04-22T02:51:14.527Z,7.1
2024-04-22T02:51:45.549Z,7.1
2024-04-22T02:52:16.541Z,7.6
2024-04-22T02:52:47.634Z,7.6
2024-04-22T02:53:18.527Z,7.1
2024-04-22T02:53:49.527Z,7.1
2024-04-22T02:54:20.529Z,7.1
2024-04-22T02:54:51.546Z,7.1
2024-04-22T02:55:22.570Z,7.8
2024-04-22T02:55:53.541Z,7.8
2024-04-22T02:56:24.533Z,7.9
2024-04-22T02:56:55.533Z,7.9
2024-04-22T02:57:26.554Z,7.9
2024-04-22T02:57:57.529Z,7.9
2024-04-22T02:58:59.542Z,7.9
2024-04-22T02:59:30.555Z,7.9
2024-04-22T03:00:01.587Z,7.9
2024-04-22T03:00:32.542Z,7.9
2024-04-22T03:01:34.558Z,8.0
2024-04-22T03:02:05.578Z,8.0
2024-04-22T03:02:36.553Z,8.3
2024-04-22T03:03:07.551Z,8.3
2024-04-22T03:03:38.617Z,8.3
2024-04-22T03:04:09.587Z,7.0
2024-04-22T03:04:40.597Z,7.0
2024-04-22T03:05:11.543Z,7.1
2024-04-22T03:05:42.548Z,7.1
2024-04-22T03:06:13.538Z,7.1
2024-04-22T03:06:44.532Z,7.1
2024-04-22T03:07:15.547Z,9.3
2024-04-22T03:07:46.597Z,9.3
2024-04-22T03:08:17.566Z,9.1
2024-04-22T03:08:48.535Z,9.1
2024-04-22T03:09:19.536Z,9.1
2024-04-22T03:09:50.548Z,9.1
2024-04-22T03:10:21.608Z,9.0
2024-04-22T03:10:52.556Z,9.0
2024-04-22T03:11:23.542Z,8.6
2024-04-22T03:11:54.578Z,8.6
2024-04-22T03:12:25.546Z,8.6
2024-04-22T03:12:56.557Z,8.6
2024-04-22T03:13:58.556Z,6.3
2024-04-22T03:14:29.552Z,8.4
2024-04-22T03:15:00.542Z,8.4
2024-04-22T03:15:31.563Z,8.4
2024-04-22T03:16:02.551Z,8.4
2024-04-22T03:16:33.603Z,10.1
2024-04-22T03:17:04.567Z,10.1
2024-04-22T03:17:35.682Z,10.1
2024-04-22T03:18:06.575Z,10.1
2024-04-22T03:18:37.562Z,10.1
2024-04-22T03:19:08.558Z,10.1
2024-04-22T03:19:39.563Z,10.1
2024-04-22T03:20:10.543Z,7.4
2024-04-22T03:20:41.560Z,7.4
2024-04-22T03:21:12.558Z,7.4
2024-04-22T03:21:43.559Z,7.4
2024-04-22T03:22:14.592Z,7.4
2024-04-22T03:22:45.570Z,7.4
2024-04-22T03:23:16.569Z,7.5
2024-04-22T03:23:47.560Z,7.5
2024-04-22T03:24:49.562Z,7.5
2024-04-22T03:25:20.623Z,7.5
2024-04-22T03:25:51.567Z,7.5
2024-04-22T03:26:53.557Z,11.1
2024-04-22T03:27:24.575Z,11.1
2024-04-22T03:27:55.611Z,11.1
2024-04-22T03:28:57.556Z,11.1
2024-04-22T03:29:28.550Z,11.5
2024-04-22T03:29:59.567Z,11.5
2024-04-22T03:30:30.565Z,11.5
2024-04-22T03:31:03.487Z,11.5
2024-04-22T03:31:32.711Z,11.5
2024-04-22T03:32:03.625Z,11.5
2024-04-22T03:32:34.655Z,9.5
2024-04-22T03:33:05.739Z,9.5
2024-04-22T03:33:36.567Z,9.5
2024-04-22T03:34:07.607Z,9.5
2024-04-22T03:34:38.600Z,9.5
2024-04-22T03:35:09.562Z,9.7
2024-04-22T03:35:40.560Z,9.7
2024-04-22T03:36:42.575Z,9.7
2024-04-22T03:37:13.585Z,9.7
2024-04-22T03:37:44.574Z,9.7
2024-04-22T03:38:15.578Z,9.7
2024-04-22T03:38:46.572Z,9.7
2024-04-22T03:39:17.566Z,9.7
2024-04-22T03:39:48.617Z,9.7
2024-04-22T03:40:19.598Z,9.7
2024-04-22T03:40:50.576Z,9.7
2024-04-22T03:41:21.572Z,11.3
2024-04-22T03:41:52.571Z,11.3
2024-04-22T03:42:23.582Z,11.3
2024-04-22T03:42:54.561Z,11.3
2024-04-22T03:43:25.647Z,11.3
2024-04-22T03:43:56.576Z,11.3
2024-04-22T03:44:27.585Z,13.2
2024-04-22T03:44:58.573Z,13.2
2024-04-22T03:45:29.582Z,13.2
2024-04-22T03:46:00.566Z,13.2
2024-04-22T03:46:31.584Z,13.2
2024-04-22T03:47:02.655Z,13.2
2024-04-22T03:47:33.726Z,14.2
2024-04-22T03:48:04.615Z,14.2
2024-04-22T03:48:35.584Z,14.2
2024-04-22T03:49:06.627Z,14.2
2024-04-22T03:49:37.627Z,14.2
2024-04-22T03:50:08.577Z,11.5
2024-04-22T03:50:39.604Z,11.5
2024-04-22T03:51:41.572Z,11.5
2024-04-22T03:52:12.621Z,11.5
2024-04-22T03:52:43.602Z,11.5
2024-04-22T03:53:14.589Z,10.2
2024-04-22T03:53:45.582Z,10.2
2024-04-22T03:54:16.590Z,10.2
2024-04-22T03:54:47.580Z,10.2
2024-04-22T03:55:18.609Z,10.2
2024-04-22T03:55:49.712Z,10.2
2024-04-22T03:56:20.578Z,9.3
2024-04-22T03:56:51.586Z,9.3
2024-04-22T03:57:22.604Z,9.3
2024-04-22T03:57:53.597Z,9.3
2024-04-22T03:58:24.606Z,9.3
2024-04-22T03:58:55.585Z,9.3
2024-04-22T03:59:26.582Z,11.0
2024-04-22T03:59:57.630Z,11.0
2024-04-22T04:00:28.594Z,11.0
2024-04-22T04:00:59.614Z,11.0
2024-04-22T04:01:30.639Z,11.0
2024-04-22T04:02:01.594Z,11.0
2024-04-22T04:02:32.615Z,14.5
2024-04-22T04:03:03.615Z,14.5
2024-04-22T04:03:34.718Z,14.5
2024-04-22T04:04:05.695Z,14.5
2024-04-22T04:04:36.757Z,14.5
2024-04-22T04:05:07.673Z,12.3
2024-04-22T04:05:38.738Z,12.3
2024-04-22T04:06:09.595Z,12.3
2024-04-22T04:06:40.599Z,12.3
2024-04-22T04:07:11.646Z,12.3
2024-04-22T04:07:42.625Z,12.3
2024-04-22T04:08:44.618Z,11.8
2024-04-22T04:09:15.616Z,11.8
2024-04-22T04:09:46.637Z,11.8
2024-04-22T04:10:48.644Z,11.8
2024-04-22T04:11:20.225Z,9.4
2024-04-22T04:11:50.631Z,9.4
2024-04-22T04:12:21.619Z,9.4
2024-04-22T04:12:52.605Z,9.4
2024-04-22T04:13:23.615Z,9.4
2024-04-22T04:13:54.608Z,9.4
2024-04-22T04:14:56.604Z,14.9
2024-04-22T04:15:27.611Z,14.9
2024-04-22T04:15:58.625Z,14.9
2024-04-22T04:17:00.710Z,14.9
2024-04-22T04:17:31.664Z,8.9
2024-04-22T04:18:02.654Z,8.9
2024-04-22T04:18:33.611Z,8.9
2024-04-22T04:19:04.626Z,8.9
2024-04-22T04:19:35.613Z,8.9
2024-04-22T04:20:06.657Z,12.4
2024-04-22T04:20:37.654Z,12.4
2024-04-22T04:21:08.651Z,12.4
2024-04-22T04:21:39.619Z,12.4
2024-04-22T04:22:10.636Z,12.4
2024-04-22T04:22:41.667Z,12.4
2024-04-22T04:23:12.622Z,9.6
2024-04-22T04:23:43.613Z,9.6
2024-04-22T04:24:14.629Z,9.6
2024-04-22T04:24:45.622Z,9.6
2024-04-22T04:25:16.644Z,9.6
2024-04-22T04:25:47.649Z,9.6
2024-04-22T04:26:18.616Z,12.3
2024-04-22T04:26:49.627Z,12.3
2024-04-22T04:27:20.620Z,12.3
2024-04-22T04:27:51.619Z,12.3
2024-04-22T04:28:53.717Z,12.3
2024-04-22T04:29:24.635Z,9.5
2024-04-22T04:29:55.618Z,9.5
2024-04-22T04:30:26.630Z,9.5
2024-04-22T04:30:57.617Z,9.5
2024-04-22T04:31:28.706Z,9.5
2024-04-22T04:31:59.723Z,9.5
2024-04-22T04:32:30.672Z,9.5
2024-04-22T04:33:01.639Z,9.5
2024-04-22T04:33:32.624Z,9.5
2024-04-22T04:34:03.657Z,9.5
2024-04-22T04:34:34.659Z,9.5
2024-04-22T04:35:07.630Z,9.5
2024-04-22T04:35:36.620Z,10.2
2024-04-22T04:36:07.671Z,10.2
2024-04-22T04:36:38.645Z,10.2
2024-04-22T04:37:09.679Z,10.2
2024-04-22T04:37:40.640Z,10.2
2024-04-22T04:38:11.629Z,9.6
2024-04-22T04:38:42.625Z,9.6
2024-04-22T04:39:13.633Z,9.6
2024-04-22T04:39:44.635Z,9.6
2024-04-22T04:40:15.688Z,9.6
2024-04-22T04:40:46.656Z,9.6
2024-04-22T04:41:17.629Z,10.2
2024-04-22T04:41:48.628Z,10.2
2024-04-22T04:42:19.634Z,10.2
2024-04-22T04:42:50.626Z,10.2
2024-04-22T04:43:52.652Z,10.2
2024-04-22T04:44:23.629Z,9.2
2024-04-22T04:44:54.632Z,9.2
2024-04-22T04:45:25.639Z,9.2
2024-04-22T04:46:27.682Z,9.2
2024-04-22T04:46:58.692Z,9.2
2024-04-22T04:47:29.670Z,9.7
2024-04-22T04:48:31.645Z,9.7
2024-04-22T04:49:02.640Z,9.7
2024-04-22T04:49:33.650Z,9.7
2024-04-22T04:50:04.648Z,9.7
2024-04-22T04:50:35.636Z,10.7
2024-04-22T04:51:06.631Z,10.7
2024-04-22T04:51:37.654Z,10.7
2024-04-22T04:52:08.670Z,10.7
2024-04-22T04:52:39.668Z,10.7
2024-04-22T04:53:10.633Z,9.1
2024-04-22T04:53:41.632Z,9.1
2024-04-22T04:54:12.657Z,9.1
2024-04-22T04:54:43.639Z,9.1
2024-04-22T04:55:14.653Z,9.1
2024-04-22T04:55:45.750Z,9.1
2024-04-22T04:56:16.653Z,9.6
2024-04-22T04:56:47.639Z,9.6
2024-04-22T04:57:18.633Z,9.6
2024-04-22T04:57:49.640Z,9.6
2024-04-22T04:58:51.742Z,9.6
2024-04-22T04:59:22.634Z,9.6
2024-04-22T04:59:53.651Z,9.6
2024-04-22T05:00:24.654Z,9.6
2024-04-22T05:00:55.725Z,9.6
2024-04-22T05:01:26.850Z,9.6
2024-04-22T05:01:57.707Z,9.6
2024-04-22T05:02:28.856Z,9.4
2024-04-22T05:02:59.653Z,9.4
2024-04-22T05:03:30.727Z,9.4
2024-04-22T05:04:01.639Z,9.4
2024-04-22T05:04:32.707Z,9.4
2024-04-22T05:05:03.647Z,9.4
2024-04-22T05:05:34.645Z,9.3
2024-04-22T05:06:36.653Z,9.3
2024-04-22T05:07:07.700Z,9.3
2024-04-22T05:07:38.662Z,9.3
2024-04-22T05:08:09.651Z,9.1
2024-04-22T05:08:40.659Z,9.1
2024-04-22T05:09:11.644Z,9.1
2024-04-22T05:09:42.676Z,9.1
2024-04-22T05:10:13.695Z,9.1
2024-04-22T05:10:44.661Z,9.1
2024-04-22T05:11:15.702Z,13.0
2024-04-22T05:11:46.693Z,13.0
2024-04-22T05:12:17.652Z,13.0
2024-04-22T05:12:48.679Z,13.0
2024-04-22T05:13:19.668Z,13.0
2024-04-22T05:13:50.731Z,13.0
2024-04-22T05:14:21.656Z,9.8
2024-04-22T05:14:52.658Z,9.8
2024-04-22T05:15:23.645Z,9.8
2024-04-22T05:15:54.653Z,9.8
2024-04-22T05:16:25.706Z,9.8
2024-04-22T05:16:56.661Z,9.8
2024-04-22T05:17:27.667Z,9.4
2024-04-22T05:17:58.753Z,9.4
2024-04-22T05:18:29.676Z,9.4
2024-04-22T05:19:00.692Z,9.4
2024-04-22T05:19:31.701Z,9.4
2024-04-22T05:20:02.663Z,9.4
2024-04-22T05:20:33.675Z,9.8
2024-04-22T05:21:35.673Z,9.8
2024-04-22T05:22:06.656Z,9.8
2024-04-22T05:22:37.752Z,9.8
2024-04-22T05:23:08.661Z,11.0
2024-04-22T05:23:39.671Z,11.0
2024-04-22T05:24:10.730Z,11.0
2024-04-22T05:24:41.662Z,11.0
2024-04-22T05:25:12.686Z,11.0
2024-04-22T05:25:43.697Z,11.0
2024-04-22T05:26:14.673Z,10.2
2024-04-22T05:26:45.666Z,10.2
2024-04-22T05:27:16.664Z,10.2
2024-04-22T05:27:47.684Z,10.2
2024-04-22T05:28:18.706Z,10.2
2024-04-22T05:28:49.673Z,10.2
2024-04-22T05:29:20.682Z,9.2
2024-04-22T05:29:51.707Z,9.2
2024-04-22T05:30:22.678Z,9.2
2024-04-22T05:30:53.671Z,9.2
2024-04-22T05:31:24.699Z,9.2
2024-04-22T05:31:55.672Z,9.2
2024-04-22T05:32:26.690Z,10.5
2024-04-22T05:32:57.732Z,10.5
2024-04-22T05:33:30.354Z,10.5
2024-04-22T05:33:59.671Z,10.5
2024-04-22T05:34:30.693Z,10.5
2024-04-22T05:35:01.669Z,10.5
2024-04-22T05:35:32.671Z,8.9
2024-04-22T05:36:03.666Z,8.9
2024-04-22T05:36:34.694Z,8.9
2024-04-22T05:37:05.674Z,8.9
2024-04-22T05:37:36.723Z,8.9
2024-04-22T05:38:07.695Z,7.0
2024-04-22T05:38:38.760Z,7.0
2024-04-22T05:39:09.663Z,7.0
2024-04-22T05:39:40.674Z,7.0
2024-04-22T05:40:11.694Z,7.0
2024-04-22T05:40:42.736Z,7.0
2024-04-22T05:41:13.676Z,8.8
2024-04-22T05:41:44.686Z,8.8
2024-04-22T05:42:15.678Z,8.8
2024-04-22T05:42:46.696Z,8.8
2024-04-22T05:43:17.677Z,8.8
2024-04-22T05:43:48.689Z,8.8
2024-04-22T05:44:19.680Z,7.6
2024-04-22T05:44:50.678Z,7.6
2024-04-22T05:45:21.680Z,7.6
2024-04-22T05:45:52.669Z,7.6
2024-04-22T05:46:54.678Z,7.6
2024-04-22T05:47:25.743Z,7.6
2024-04-22T05:47:56.806Z,7.6
2024-04-22T05:48:58.673Z,8.0
2024-04-22T05:49:29.711Z,8.0
2024-04-22T05:50:00.719Z,8.0
2024-04-22T05:50:31.836Z,8.5
2024-04-22T05:51:02.669Z,8.5
2024-04-22T05:51:33.685Z,8.4
2024-04-22T05:52:04.937Z,8.4
2024-04-22T05:52:35.695Z,8.4
2024-04-22T05:53:06.697Z,7.9
2024-04-22T05:53:37.705Z,7.9
2024-04-22T05:54:08.680Z,7.7
2024-04-22T05:54:39.681Z,7.7
2024-04-22T05:55:10.793Z,7.7
2024-04-22T05:55:41.715Z,7.7
2024-04-22T05:56:12.681Z,7.1
2024-04-22T05:56:43.684Z,7.1
2024-04-22T05:57:14.682Z,6.9
2024-04-22T05:57:47.837Z,6.9
2024-04-22T05:58:47.728Z,6.9
2024-04-22T05:59:18.700Z,7.3
2024-04-22T05:59:49.686Z,7.3
2024-04-22T06:00:20.697Z,7.3
2024-04-22T06:00:51.702Z,7.3
2024-04-22T06:01:22.729Z,7.3
2024-04-22T06:01:53.784Z,7.3
2024-04-22T06:02:24.700Z,8.8
2024-04-22T06:02:55.697Z,8.8
2024-04-22T06:03:26.682Z,8.3
2024-04-22T06:03:57.704Z,8.3
2024-04-22T06:04:28.836Z,8.3
2024-04-22T06:04:59.698Z,8.3
2024-04-22T06:05:30.689Z,7.6
2024-04-22T06:06:01.686Z,7.6
2024-04-22T06:06:33.246Z,7.3
2024-04-22T06:07:03.685Z,7.3
2024-04-22T06:07:34.706Z,7.3
2024-04-22T06:08:05.688Z,7.3
2024-04-22T06:08:36.695Z,5.9
2024-04-22T06:09:07.699Z,7.6
2024-04-22T06:09:38.695Z,7.6
2024-04-22T06:10:09.696Z,7.6
2024-04-22T06:10:40.811Z,7.6
2024-04-22T06:11:11.735Z,6.4
2024-04-22T06:11:48.761Z,6.4
2024-04-22T06:12:17.285Z,11.0
2024-04-22T06:12:44.698Z,11.0
2024-04-22T06:13:46.757Z,11.0
2024-04-22T06:14:17.703Z,11.0
2024-04-22T06:14:48.696Z,11.0
2024-04-22T06:15:19.695Z,12.9
2024-04-22T06:15:50.709Z,12.9
2024-04-22T06:16:21.756Z,12.9
2024-04-22T06:16:52.915Z,12.9
2024-04-22T06:17:23.745Z,12.9
2024-04-22T06:17:54.737Z,12.9
2024-04-22T06:18:25.699Z,15.5
2024-04-22T06:18:56.705Z,15.5
2024-04-22T06:19:27.712Z,15.5
2024-04-22T06:19:58.700Z,15.5
2024-04-22T06:20:29.716Z,15.5
2024-04-22T06:21:31.703Z,11.6
2024-04-22T06:22:02.706Z,11.6
2024-04-22T06:22:33.727Z,11.6
2024-04-22T06:23:04.714Z,11.6
2024-04-22T06:23:35.705Z,11.6
2024-04-22T06:24:06.764Z,7.8
2024-04-22T06:24:37.722Z,7.8
2024-04-22T06:25:08.752Z,7.8
2024-04-22T06:25:39.726Z,7.8
2024-04-22T06:26:10.733Z,7.8
2024-04-22T06:26:41.717Z,7.8
2024-04-22T06:27:12.727Z,7.7
2024-04-22T06:27:43.748Z,7.7
2024-04-22T06:28:14.731Z,7.7
2024-04-22T06:28:45.740Z,7.7
2024-04-22T06:29:16.726Z,7.7
2024-04-22T06:29:47.719Z,7.7
2024-04-22T06:30:18.783Z,8.6
2024-04-22T06:30:49.717Z,8.6
2024-04-22T06:31:20.793Z,8.6
2024-04-22T06:31:52.112Z,8.6
2024-04-22T06:32:22.807Z,8.6
2024-04-22T06:32:53.767Z,8.6
2024-04-22T06:33:24.735Z,8.9
2024-04-22T06:33:55.726Z,8.9
2024-04-22T06:34:57.720Z,8.9
2024-04-22T06:35:28.732Z,8.9
2024-04-22T06:37:01.743Z,7.7
2024-04-22T06:37:32.740Z,7.7
2024-04-22T06:38:05.558Z,7.7
2024-04-22T06:39:05.719Z,7.7
2024-04-22T06:39:36.741Z,9.3
2024-04-22T06:40:07.767Z,9.3
2024-04-22T06:40:38.747Z,9.3
2024-04-22T06:41:09.734Z,9.3
2024-04-22T06:41:40.742Z,9.3
2024-04-22T06:42:11.737Z,11.2
2024-04-22T06:42:42.723Z,11.2
2024-04-22T06:43:13.761Z,11.2
2024-04-22T06:43:44.746Z,11.2
2024-04-22T06:44:15.736Z,11.2
2024-04-22T06:44:46.746Z,11.2
2024-04-22T06:45:17.756Z,8.0
2024-04-22T06:45:48.748Z,8.0
2024-04-22T06:46:19.743Z,8.0
2024-04-22T06:46:50.784Z,8.0
2024-04-22T06:47:21.753Z,8.0
2024-04-22T06:47:52.740Z,8.0
2024-04-22T06:48:23.776Z,8.5
2024-04-22T06:48:54.732Z,8.5
2024-04-22T06:49:29.067Z,8.5
2024-04-22T06:49:56.826Z,8.5
2024-04-22T06:50:27.740Z,8.5
2024-04-22T06:51:29.742Z,8.6
2024-04-22T06:52:00.755Z,8.6
2024-04-22T06:52:31.816Z,8.6
2024-04-22T06:53:02.734Z,8.6
2024-04-22T06:53:33.762Z,8.6
2024-04-22T06:54:04.743Z,8.6
2024-04-22T06:54:35.739Z,6.9
2024-04-22T06:55:06.770Z,6.9
2024-04-22T06:55:37.786Z,6.9
2024-04-22T06:56:08.764Z,6.9
2024-04-22T06:56:40.719Z,6.9
2024-04-22T06:57:10.758Z,8.4
2024-04-22T06:57:41.779Z,8.4
2024-04-22T06:58:12.753Z,8.4
2024-04-22T06:58:43.912Z,8.4
2024-04-22T06:59:14.751Z,8.4
2024-04-22T06:59:45.753Z,8.4
2024-04-22T07:00:16.756Z,7.7
2024-04-22T07:00:47.770Z,7.7
2024-04-22T07:01:23.881Z,7.7
2024-04-22T07:01:49.764Z,7.7
2024-04-22T07:02:22.032Z,7.7
2024-04-22T07:02:51.977Z,7.7
2024-04-22T07:03:22.815Z,9.2
2024-04-22T07:03:53.841Z,9.2
2024-04-22T07:04:24.946Z,9.2
2024-04-22T07:04:55.781Z,9.2
2024-04-22T07:05:26.827Z,9.2
2024-04-22T07:06:28.785Z,8.2
2024-04-22T07:06:59.762Z,8.2
2024-04-22T07:07:30.836Z,8.2
2024-04-22T07:08:35.217Z,8.2
2024-04-22T07:09:03.772Z,8.2
2024-04-22T07:09:36.385Z,8.0
2024-04-22T07:10:05.824Z,8.0
2024-04-22T07:10:36.845Z,8.0
2024-04-22T07:11:07.921Z,8.0
2024-04-22T07:11:38.936Z,8.0
2024-04-22T07:12:09.817Z,7.9
2024-04-22T07:12:40.819Z,7.9
2024-04-22T07:13:11.832Z,7.9
2024-04-22T07:13:42.833Z,7.9
2024-04-22T07:14:13.818Z,7.9
2024-04-22T07:14:44.814Z,7.9
2024-04-22T07:15:15.826Z,7.4
2024-04-22T07:15:46.816Z,7.4
2024-04-22T07:16:17.864Z,7.4
2024-04-22T07:16:48.900Z,7.4
2024-04-22T07:17:19.843Z,7.4
2024-04-22T07:17:50.889Z,7.4
2024-04-22T07:18:21.861Z,7.3
2024-04-22T07:18:53.399Z,7.3
2024-04-22T07:19:23.823Z,7.3
2024-04-22T07:19:54.887Z,7.3
2024-04-22T07:20:25.830Z,7.3
2024-04-22T07:20:56.846Z,7.3
2024-04-22T07:21:27.823Z,7.3
2024-04-22T07:21:58.815Z,7.3
2024-04-22T07:22:29.851Z,7.3
2024-04-22T07:23:00.828Z,7.3
2024-04-22T07:23:31.838Z,7.3
2024-04-22T07:24:02.837Z,7.3
2024-04-22T07:24:33.957Z,6.8
2024-04-22T07:25:05.268Z,6.8
2024-04-22T07:25:35.852Z,6.8
2024-04-22T07:26:06.860Z,6.8
2024-04-22T07:26:37.853Z,6.8
2024-04-22T07:27:13.212Z,9.7
2024-04-22T07:27:39.825Z,9.7
2024-04-22T07:28:41.840Z,9.7
2024-04-22T07:29:12.845Z,9.7
2024-04-22T07:29:43.831Z,9.7
2024-04-22T07:30:14.831Z,14.7
2024-04-22T07:30:45.830Z,14.7
2024-04-22T07:31:16.844Z,14.7
2024-04-22T07:31:47.953Z,14.7
2024-04-22T07:32:18.870Z,14.7
2024-04-22T07:32:49.997Z,14.7
2024-04-22T07:33:20.899Z,7.6
2024-04-22T07:33:51.860Z,7.6
2024-04-22T07:34:22.843Z,7.6
2024-04-22T07:34:54.184Z,7.6
2024-04-22T07:35:24.837Z,7.6
2024-04-22T07:36:26.832Z,8.8
2024-04-22T07:36:57.850Z,8.8
2024-04-22T07:37:28.843Z,8.8
2024-04-22T07:37:59.858Z,8.8
2024-04-22T07:38:30.831Z,8.8
2024-04-22T07:39:01.843Z,8.8
2024-04-22T07:39:32.873Z,7.4
2024-04-22T07:40:03.969Z,7.4
2024-04-22T07:40:34.878Z,7.4